Wetterdaten: Woche 01.11.10 - 07.11.10 (KW44)
Datum Zeit Temp. A. Feuchte A. Luftdruck Regen Wind Richtung Taupunkt Windchill Windben
01.11.2010 00:00 8,1 C 86 % 1000,1 hPa 0,0 l/m 0,0 km/h S 5,9 C 8,1 C 0,0 km/h
01.11.2010 01:00 7,9 C 86 % 1000,6 hPa 0,0 l/m 0,0 km/h S 5,7 C 7,9 C 0,0 km/h
01.11.2010 02:00 6,9 C 86 % 1001,2 hPa 0,0 l/m 0,0 km/h S-SO 4,7 C 6,9 C 0,0 km/h
01.11.2010 03:00 6,9 C 85 % 1002,0 hPa 0,0 l/m 0,0 km/h NO 4,6 C 6,9 C 0,0 km/h
01.11.2010 04:00 7,1 C 85 % 1002,8 hPa 0,0 l/m 0,0 km/h NO 4,8 C 7,1 C 0,0 km/h
01.11.2010 05:00 6,8 C 85 % 1003,3 hPa 0,0 l/m 0,0 km/h O-SO 4,5 C 6,8 C 0,0 km/h
01.11.2010 06:00 5,6 C 86 % 1004,2 hPa 0,0 l/m 0,0 km/h O-SO 3,4 C 5,6 C 0,0 km/h
01.11.2010 07:00 5,9 C 85 % 1005,1 hPa 0,0 l/m 0,0 km/h O-SO 3,6 C 5,9 C 0,0 km/h
01.11.2010 08:00 7,2 C 85 % 1005,9 hPa 0,0 l/m 0,0 km/h SO 4,9 C 7,2 C 0,0 km/h
01.11.2010 09:00 10,8 C 86 % 1006,5 hPa 0,0 l/m 0,0 km/h S-SO 8,6 C 10,8 C 0,0 km/h
01.11.2010 10:00 12,2 C 83 % 1007,0 hPa 0,0 l/m 0,0 km/h S-SW 9,4 C 12,2 C 0,0 km/h
01.11.2010 11:00 15,1 C 73 % 1006,9 hPa 0,0 l/m 0,0 km/h NW 10,3 C 15,1 C 0,0 km/h
01.11.2010 12:00 16,8 C 65 % 1006,7 hPa 0,0 l/m 0,0 km/h W-NW 10,2 C 16,8 C 0,0 km/h
01.11.2010 13:00 16,2 C 67 % 1006,9 hPa 0,0 l/m 0,6 km/h W 10,1 C 16,2 C 0,4 km/h
01.11.2010 14:00 18,6 C 56 % 1007,1 hPa 0,0 l/m 0,0 km/h N-NW 9,6 C 18,6 C 0,0 km/h
01.11.2010 15:00 17,1 C 58 % 1007,8 hPa 0,0 l/m 0,0 km/h S-SW 8,8 C 17,1 C 0,0 km/h
01.11.2010 16:00 16,9 C 62 % 1007,9 hPa 0,0 l/m 0,0 km/h S-SW 9,6 C 16,9 C 0,0 km/h
01.11.2010 17:00 9,3 C 80 % 1008,7 hPa 0,0 l/m 0,0 km/h O 6,0 C 9,3 C 0,0 km/h
01.11.2010 18:00 7,6 C 85 % 1009,8 hPa 0,0 l/m 0,0 km/h N-NO 5,2 C 7,6 C 0,0 km/h
01.11.2010 19:00 7,8 C 86 % 1010,5 hPa 0,0 l/m 1,9 km/h O-SO 5,6 C 7,8 C 1,1 km/h
01.11.2010 20:00 6,9 C 86 % 1010,5 hPa 0,0 l/m 4,5 km/h NO 4,7 C 6,9 C 2,5 km/h
01.11.2010 21:00 6,8 C 86 % 1010,9 hPa 0,0 l/m 0,0 km/h NO 4,6 C 6,8 C 0,0 km/h
01.11.2010 22:00 5,8 C 86 % 1011,7 hPa 0,0 l/m 0,0 km/h SO 3,6 C 5,8 C 0,0 km/h
01.11.2010 23:00 5,0 C 87 % 1011,9 hPa 0,0 l/m 0,0 km/h SO 3,0 C 5,0 C 0,0 km/h
02.11.2010 00:00 4,5 C 87 % 1012,3 hPa 0,0 l/m 0,0 km/h NO 2,5 C 4,5 C 0,0 km/h
02.11.2010 01:00 4,6 C 86 % 1012,2 hPa 0,0 l/m 0,0 km/h O-SO 2,5 C 4,6 C 0,0 km/h
02.11.2010 02:00 5,5 C 86 % 1012,7 hPa 0,0 l/m 0,0 km/h SO 3,3 C 5,5 C 0,0 km/h
02.11.2010 03:00 5,3 C 86 % 1012,6 hPa 0,0 l/m 0,0 km/h SO 3,2 C 5,3 C 0,0 km/h
02.11.2010 04:00 5,9 C 85 % 1013,1 hPa 0,0 l/m 0,0 km/h S-SO 3,6 C 5,9 C 0,0 km/h
02.11.2010 05:00 6,3 C 85 % 1013,8 hPa 0,0 l/m 0,0 km/h NO 4,0 C 6,3 C 0,0 km/h
02.11.2010 06:00 6,9 C 85 % 1014,0 hPa 0,0 l/m 0,0 km/h NO 4,6 C 6,9 C 0,0 km/h
02.11.2010 07:00 7,1 C 85 % 1014,6 hPa 0,0 l/m 0,0 km/h SW 4,8 C 7,1 C 0,0 km/h
02.11.2010 08:00 7,3 C 85 % 1015,8 hPa 0,0 l/m 0,0 km/h SO 4,9 C 7,3 C 0,0 km/h
02.11.2010 09:00 8,1 C 85 % 1016,1 hPa 0,0 l/m 0,0 km/h SO 5,7 C 8,1 C 0,0 km/h
02.11.2010 10:00 9,8 C 85 % 1016,3 hPa 0,0 l/m 0,0 km/h NW 7,4 C 9,8 C 0,0 km/h
02.11.2010 11:00 11,6 C 87 % 1016,5 hPa 0,0 l/m 0,0 km/h W-NW 9,5 C 11,6 C 0,0 km/h
02.11.2010 12:00 10,4 C 87 % 1016,7 hPa 0,0 l/m 0,0 km/h S 8,3 C 10,4 C 0,0 km/h
02.11.2010 13:00 13,0 C 81 % 1015,8 hPa 0,0 l/m 0,0 km/h W 9,8 C 13,0 C 0,0 km/h
02.11.2010 14:00 16,9 C 64 % 1015,9 hPa 0,0 l/m 2,6 km/h SW 10,0 C 16,9 C 1,4 km/h
02.11.2010 15:00 11,9 C 78 % 1016,1 hPa 0,0 l/m 1,9 km/h SW 8,2 C 11,9 C 1,1 km/h
02.11.2010 16:00 10,9 C 82 % 1016,8 hPa 0,0 l/m 1,9 km/h S 7,9 C 10,9 C 1,1 km/h
02.11.2010 17:00 9,5 C 84 % 1017,0 hPa 0,0 l/m 0,0 km/h NO 6,9 C 9,5 C 0,0 km/h
02.11.2010 18:00 7,2 C 87 % 1017,7 hPa 0,0 l/m 0,0 km/h O-NO 5,2 C 7,2 C 0,0 km/h
02.11.2010 19:00 5,8 C 87 % 1017,8 hPa 0,0 l/m 0,0 km/h NO 3,8 C 5,8 C 0,0 km/h
02.11.2010 20:00 5,2 C 87 % 1018,0 hPa 0,0 l/m 0,0 km/h O-NO 3,2 C 5,2 C 0,0 km/h
02.11.2010 21:00 4,8 C 87 % 1017,9 hPa 0,0 l/m 0,0 km/h SO 2,8 C 4,8 C 0,0 km/h
02.11.2010 22:00 4,5 C 87 % 1018,2 hPa 0,0 l/m 0,0 km/h O-SO 2,5 C 4,5 C 0,0 km/h
02.11.2010 23:00 4,5 C 86 % 1017,5 hPa 0,0 l/m 0,0 km/h O-NO 2,4 C 4,5 C 0,0 km/h
03.11.2010 00:00 4,5 C 86 % 1017,0 hPa 0,0 l/m 0,0 km/h NO 2,4 C 4,5 C 0,0 km/h
03.11.2010 01:00 5,0 C 86 % 1017,0 hPa 0,0 l/m 0,0 km/h NO 2,9 C 5,0 C 0,0 km/h
03.11.2010 02:00 5,2 C 86 % 1017,0 hPa 0,0 l/m 0,0 km/h S-SO 3,1 C 5,2 C 0,0 km/h
03.11.2010 03:00 6,6 C 85 % 1016,9 hPa 0,0 l/m 0,0 km/h SO 4,3 C 6,6 C 0,0 km/h
03.11.2010 04:00 8,0 C 88 % 1016,8 hPa 0,0 l/m 0,0 km/h W-SW 6,1 C 8,0 C 0,0 km/h
03.11.2010 05:00 8,8 C 87 % 1017,0 hPa 0,0 l/m 0,0 km/h NO 6,8 C 8,8 C 0,0 km/h
03.11.2010 06:00 8,3 C 87 % 1017,3 hPa 0,0 l/m 0,0 km/h N-NO 6,3 C 8,3 C 0,0 km/h
03.11.2010 07:00 8,9 C 87 % 1017,4 hPa 0,0 l/m 0,0 km/h W-SW 6,9 C 8,9 C 0,0 km/h
03.11.2010 08:00 11,1 C 87 % 1017,9 hPa 0,0 l/m 22,7 km/h W-SW 9,0 C 3,9 C 12,6 km/h
03.11.2010 09:00 11,9 C 85 % 1018,1 hPa 0,0 l/m 23,3 km/h W-SW 9,5 C 4,8 C 13,0 km/h
03.11.2010 10:00 13,4 C 81 % 1018,0 hPa 0,0 l/m 22,7 km/h S-SW 10,2 C 7,0 C 12,6 km/h
03.11.2010 11:00 14,7 C 78 % 1018,4 hPa 0,0 l/m 18,1 km/h W-SW 10,9 C 9,9 C 10,1 km/h
03.11.2010 12:00 14,6 C 74 % 1018,4 hPa 0,0 l/m 18,1 km/h W-SW 10,0 C 9,7 C 10,1 km/h
03.11.2010 13:00 15,3 C 72 % 1018,1 hPa 0,0 l/m 23,3 km/h S 10,3 C 9,4 C 13,0 km/h
03.11.2010 14:00 15,2 C 72 % 1018,4 hPa 0,0 l/m 27,2 km/h SW 10,2 C 8,5 C 15,1 km/h
03.11.2010 15:00 14,6 C 73 % 1018,7 hPa 0,0 l/m 27,2 km/h SW 9,8 C 7,6 C 15,1 km/h
03.11.2010 16:00 14,4 C 74 % 1019,2 hPa 0,0 l/m 31,8 km/h SW 9,8 C 6,5 C 17,6 km/h
03.11.2010 17:00 13,8 C 77 % 1019,7 hPa 0,0 l/m 26,6 km/h SW 9,8 C 6,6 C 14,8 km/h
03.11.2010 18:00 13,6 C 78 % 1020,9 hPa 0,0 l/m 9,7 km/h S 9,8 C 11,7 C 5,4 km/h
03.11.2010 19:00 13,6 C 78 % 1021,4 hPa 0,0 l/m 6,5 km/h S 9,8 C 13,6 C 3,6 km/h
03.11.2010 20:00 13,5 C 79 % 1021,8 hPa 0,0 l/m 1,3 km/h S-SW 9,9 C 13,5 C 0,7 km/h
03.11.2010 21:00 13,6 C 80 % 1022,1 hPa 0,0 l/m 18,8 km/h S-SW 10,2 C 8,3 C 10,4 km/h
03.11.2010 22:00 13,5 C 82 % 1022,1 hPa 0,0 l/m 25,3 km/h SW 10,5 C 6,5 C 14,0 km/h
03.11.2010 23:00 13,6 C 82 % 1022,6 hPa 0,0 l/m 22,7 km/h S-SW 10,6 C 7,2 C 12,6 km/h
04.11.2010 00:00 13,3 C 83 % 1023,5 hPa 0,0 l/m 23,3 km/h S-SW 10,5 C 6,7 C 13,0 km/h
04.11.2010 01:00 13,1 C 83 % 1023,3 hPa 0,0 l/m 8,4 km/h SW 10,3 C 11,9 C 4,7 km/h
04.11.2010 02:00 13,6 C 82 % 1023,5 hPa 0,0 l/m 14,9 km/h S-SW 10,6 C 9,5 C 8,3 km/h
04.11.2010 03:00 13,9 C 81 % 1023,6 hPa 0,0 l/m 18,8 km/h SW 10,7 C 8,7 C 10,4 km/h
04.11.2010 04:00 13,9 C 81 % 1024,1 hPa 0,0 l/m 11,0 km/h SW 10,7 C 11,4 C 6,1 km/h
04.11.2010 05:00 13,8 C 82 % 1024,1 hPa 0,0 l/m 1,9 km/h S 10,8 C 13,8 C 1,1 km/h
04.11.2010 06:00 13,6 C 82 % 1024,8 hPa 0,0 l/m 21,4 km/h S 10,6 C 7,6 C 11,9 km/h
04.11.2010 07:00 14,1 C 82 % 1025,4 hPa 0,0 l/m 19,4 km/h S-SW 11,1 C 8,7 C 10,8 km/h
04.11.2010 08:00 14,6 C 81 % 1026,0 hPa 0,0 l/m 20,1 km/h W-SW 11,4 C 9,2 C 11,2 km/h
04.11.2010 09:00 17,5 C 73 % 1026,7 hPa 0,0 l/m 44,7 km/h SW 12,6 C 9,6 C 24,8 km/h
04.11.2010 10:00 15,8 C 78 % 1026,7 hPa 0,0 l/m 23,3 km/h S 12,0 C 10,0 C 13,0 km/h
04.11.2010 11:00 17,4 C 73 % 1026,6 hPa 0,0 l/m 39,5 km/h SW 12,5 C 9,9 C 22,0 km/h
04.11.2010 12:00 18,4 C 71 % 1026,1 hPa 0,0 l/m 22,0 km/h SW 13,0 C 13,7 C 12,2 km/h
04.11.2010 13:00 17,2 C 73 % 1026,2 hPa 0,0 l/m 25,9 km/h S-SW 12,3 C 11,4 C 14,4 km/h
04.11.2010 14:00 17,1 C 74 % 1026,1 hPa 0,0 l/m 32,4 km/h S-SW 12,4 C 10,3 C 18,0 km/h
04.11.2010 15:00 18,9 C 68 % 1026,0 hPa 0,0 l/m 23,3 km/h W-SW 12,9 C 14,2 C 13,0 km/h
04.11.2010 16:00 17,8 C 71 % 1026,1 hPa 0,0 l/m 14,9 km/h SW 12,5 C 14,6 C 8,3 km/h
04.11.2010 17:00 15,4 C 78 % 1026,3 hPa 0,0 l/m 19,4 km/h SW 11,6 C 10,4 C 10,8 km/h
04.11.2010 18:00 15,5 C 79 % 1026,7 hPa 0,0 l/m 20,1 km/h S-SW 11,9 C 10,4 C 11,2 km/h
04.11.2010 19:00 14,4 C 81 % 1026,7 hPa 0,0 l/m 8,4 km/h SW 11,2 C 13,3 C 4,7 km/h
04.11.2010 20:00 13,5 C 84 % 1026,7 hPa 0,0 l/m 2,6 km/h S-SW 10,8 C 13,5 C 1,4 km/h
04.11.2010 21:00 14,1 C 83 % 1027,1 hPa 0,0 l/m 9,7 km/h SW 11,3 C 12,3 C 5,4 km/h
04.11.2010 22:00 14,1 C 84 % 1027,0 hPa 0,0 l/m 0,6 km/h SW 11,4 C 14,1 C 0,4 km/h
04.11.2010 23:00 14,5 C 83 % 1026,8 hPa 0,0 l/m 20,7 km/h SW 11,6 C 8,9 C 11,5 km/h
05.11.2010 00:00 14,6 C 83 % 1026,8 hPa 0,0 l/m 12,3 km/h SW 11,7 C 11,7 C 6,8 km/h
05.11.2010 01:00 14,9 C 82 % 1026,8 hPa 0,0 l/m 24,6 km/h S-SW 11,9 C 8,6 C 13,7 km/h
05.11.2010 02:00 14,8 C 83 % 1026,5 hPa 0,0 l/m 32,4 km/h W-SW 11,9 C 7,0 C 18,0 km/h
05.11.2010 03:00 14,4 C 84 % 1026,4 hPa 0,0 l/m 19,4 km/h S-SW 11,7 C 9,1 C 10,8 km/h
05.11.2010 04:00 14,1 C 84 % 1026,1 hPa 0,0 l/m 4,5 km/h SW 11,4 C 14,1 C 2,5 km/h
05.11.2010 05:00 13,1 C 86 % 1026,0 hPa 0,0 l/m 7,1 km/h W 10,8 C 12,7 C 4,0 km/h
05.11.2010 06:00 13,6 C 86 % 1026,1 hPa 0,0 l/m 0,0 km/h W-SW 11,3 C 13,6 C 0,0 km/h
05.11.2010 07:00 13,3 C 86 % 1026,5 hPa 0,0 l/m 6,5 km/h W 11,0 C 13,3 C 3,6 km/h
05.11.2010 08:00 13,6 C 86 % 1026,8 hPa 0,0 l/m 0,0 km/h W 11,3 C 13,6 C 0,0 km/h
05.11.2010 09:00 14,1 C 85 % 1026,8 hPa 0,0 l/m 0,0 km/h S-SO 11,6 C 14,1 C 0,0 km/h
05.11.2010 10:00 16,9 C 78 % 1026,7 hPa 0,0 l/m 3,9 km/h W-SW 13,0 C 16,9 C 2,2 km/h
05.11.2010 11:00 16,6 C 76 % 1026,5 hPa 0,0 l/m 30,5 km/h SW 12,3 C 9,9 C 16,9 km/h
05.11.2010 12:00 16,8 C 77 % 1025,8 hPa 0,0 l/m 24,0 km/h W-SW 12,7 C 11,2 C 13,3 km/h
05.11.2010 13:00 17,3 C 73 % 1025,1 hPa 0,0 l/m 20,1 km/h SW 12,4 C 12,7 C 11,2 km/h
05.11.2010 14:00 19,9 C 63 % 1024,5 hPa 0,0 l/m 36,3 km/h SW 12,6 C 13,9 C 20,2 km/h
05.11.2010 15:00 20,1 C 62 % 1024,2 hPa 0,0 l/m 29,8 km/h W-SW 12,6 C 14,9 C 16,6 km/h
05.11.2010 16:00 18,1 C 65 % 1024,0 hPa 0,0 l/m 22,7 km/h SW 11,4 C 13,2 C 12,6 km/h
05.11.2010 17:00 14,3 C 77 % 1024,4 hPa 0,0 l/m 23,3 km/h SW 10,3 C 8,0 C 13,0 km/h
05.11.2010 18:00 12,9 C 79 % 1024,3 hPa 0,0 l/m 2,6 km/h W 9,3 C 12,9 C 1,4 km/h
05.11.2010 19:00 12,3 C 82 % 1024,1 hPa 0,0 l/m 0,0 km/h W-NW 9,3 C 12,3 C 0,0 km/h
05.11.2010 20:00 12,9 C 84 % 1024,0 hPa 0,0 l/m 0,0 km/h S 10,3 C 12,9 C 0,0 km/h
05.11.2010 21:00 13,2 C 83 % 1023,6 hPa 0,0 l/m 7,8 km/h W 10,4 C 12,3 C 4,3 km/h
05.11.2010 22:00 13,8 C 82 % 1023,5 hPa 0,0 l/m 3,2 km/h S-SW 10,8 C 13,8 C 1,8 km/h
05.11.2010 23:00 13,9 C 78 % 1022,5 hPa 0,0 l/m 23,3 km/h SW 10,1 C 7,5 C 13,0 km/h
06.11.2010 00:00 13,8 C 75 % 1022,2 hPa 0,0 l/m 18,8 km/h SW 9,4 C 8,5 C 10,4 km/h
06.11.2010 01:00 13,6 C 73 % 1021,7 hPa 0,0 l/m 13,0 km/h W-SW 8,9 C 10,2 C 7,2 km/h
06.11.2010 02:00 13,2 C 74 % 1021,4 hPa 0,0 l/m 25,3 km/h W-SW 8,7 C 6,1 C 14,0 km/h
06.11.2010 03:00 12,8 C 75 % 1021,0 hPa 0,0 l/m 1,9 km/h W 8,5 C 12,8 C 1,1 km/h
06.11.2010 04:00 12,2 C 78 % 1020,3 hPa 0,0 l/m 0,0 km/h W-SW 8,5 C 12,2 C 0,0 km/h
06.11.2010 05:00 12,4 C 79 % 1019,3 hPa 0,0 l/m 18,8 km/h SW 8,9 C 6,7 C 10,4 km/h
06.11.2010 06:00 12,9 C 77 % 1019,3 hPa 0,0 l/m 26,6 km/h SW 9,0 C 5,4 C 14,8 km/h
06.11.2010 07:00 12,8 C 75 % 1018,8 hPa 0,0 l/m 20,1 km/h S 8,5 C 6,9 C 11,2 km/h
06.11.2010 08:00 12,9 C 76 % 1018,5 hPa 0,0 l/m 0,0 km/h SW 8,8 C 12,9 C 0,0 km/h
06.11.2010 09:00 13,6 C 74 % 1017,8 hPa 0,0 l/m 31,1 km/h S-SW 9,1 C 5,5 C 17,3 km/h
06.11.2010 10:00 14,0 C 74 % 1017,5 hPa 0,0 l/m 19,4 km/h W 9,4 C 8,6 C 10,8 km/h
06.11.2010 11:00 14,4 C 72 % 1017,1 hPa 0,0 l/m 16,8 km/h SW 9,4 C 9,9 C 9,4 km/h
06.11.2010 12:00 14,6 C 71 % 1016,0 hPa 0,0 l/m 35,0 km/h S-SW 9,4 C 6,4 C 19,4 km/h
06.11.2010 13:00 14,4 C 69 % 1015,1 hPa 0,0 l/m 24,0 km/h SW 8,8 C 8,0 C 13,3 km/h
06.11.2010 14:00 14,3 C 70 % 1014,4 hPa 0,0 l/m 23,3 km/h N 8,9 C 8,0 C 13,0 km/h
Min-Datum _ 02.11.10 01.11.10 01.11.10 - 01.11.10 - 02.11.10 03.11.10 01.11.10
_ Min-Zeit 00:30 14:30 00:30 - 00:30 - 23:30 08:30 00:30
Minimum _ 4,5 C 56 % 1000,1 hPa - 0,0 km/h - 2,4 C 3,9 C 0,0 km/h
Max-Datum _ 05.11.10 03.11.10 04.11.10 01.11.10 04.11.10 - 04.11.10 01.11.10 04.11.10
_ Max-Zeit 15:30 04:30 21:30 00:30 09:30 - 12:30 14:30 09:30
Maximum _ 20,1 C 88 % 1027,1 hPa 0,0 l/m 44,7 km/h
SW
- 13,0 C 18,6 C 24,8 km/h
SW
Durchschnitt _ 12,0 C 80 % 1018,4 hPa #0,0 l/m 10,3 km/h SW 8,6 C 9,6 C 5,7 km/h